北京 の空港の天気 - METARとTAF

北京首都国際空港 ( ZBAA / PEK ) - 中国 北京市
飛行場実況気象(Metar)
観測時間08/16 14:30 CST (08/16 06:30 UTC)
風向・風速不定 1m/s
視程10km以上
天気現象
なし
気温33℃
湿度36%
気圧1013hPa
METARZBAA 160630Z VRB01MPS CAVOK 33/16 Q1013 NOSIG
過去の天気等 Google飛行場航空写真 Wunderground天気予報

過去48時間のMETAR

飛行場予報(TAF)
発表時間: 8/16 11:20 CST (8/16 03:20 UTC)
予報対象時間: 16日14時 CST ~ 17日14時 CST
風向・風速東南東 4m/s
視程10km以上
なし
TAF ZBAA 160320Z 1606/1706 12004MPS CAVOK TX33/1607Z TN24/1621Z